createdAt,value
2022-12-20T00:01:33.710Z,-0.83
2022-12-20T00:04:05.308Z,-0.97
2022-12-20T00:06:35.632Z,-0.92
2022-12-20T00:09:06.503Z,-0.98
2022-12-20T00:11:33.432Z,-0.92
2022-12-20T00:14:00.368Z,-0.86
2022-12-20T00:16:29.283Z,-0.91
2022-12-20T00:18:59.213Z,-0.88
2022-12-20T00:21:27.229Z,-0.87
2022-12-20T00:23:55.749Z,-0.83
2022-12-20T00:26:26.636Z,-0.97
2022-12-20T00:28:54.173Z,-0.84
2022-12-20T00:31:23.836Z,-0.84
2022-12-20T00:33:53.746Z,-0.82
2022-12-20T00:36:23.107Z,-0.85
2022-12-20T00:38:52.503Z,-0.78
2022-12-20T00:41:28.854Z,-0.86
2022-12-20T00:43:56.171Z,-0.84
2022-12-20T00:46:23.796Z,-0.82
2022-12-20T00:48:52.029Z,-0.82
2022-12-20T00:51:32.801Z,-0.83
2022-12-20T00:53:59.651Z,-0.84
2022-12-20T00:56:26.489Z,-0.92
2022-12-20T00:58:54.495Z,-1.05
2022-12-20T01:01:26.268Z,-0.87
2022-12-20T01:03:54.058Z,-0.91
2022-12-20T01:06:22.182Z,-0.89
2022-12-20T01:08:49.111Z,-1.02
2022-12-20T01:11:23.933Z,-1.03
2022-12-20T01:13:56.554Z,-1.02
2022-12-20T01:16:36.437Z,-1.05
2022-12-20T01:19:04.878Z,-1.03
2022-12-20T01:21:31.670Z,-1.06
2022-12-20T01:23:58.452Z,-1.05
2022-12-20T01:26:28.803Z,-1.11
2022-12-20T01:28:59.666Z,-1.14
2022-12-20T01:31:27.642Z,-1.19
2022-12-20T01:33:54.412Z,-1.21
2022-12-20T01:36:28.541Z,-1.20
2022-12-20T01:39:03.657Z,-1.23
2022-12-20T01:41:32.359Z,-1.32
2022-12-20T01:44:16.952Z,-1.40
2022-12-20T01:46:45.962Z,-1.33
2022-12-20T01:49:31.025Z,-1.33
2022-12-20T01:52:14.897Z,-1.32
2022-12-20T01:54:47.787Z,-1.31
2022-12-20T01:57:21.455Z,-1.27
2022-12-20T01:59:50.839Z,-1.27
2022-12-20T02:02:18.462Z,-1.29
2022-12-20T02:04:45.373Z,-1.28
2022-12-20T02:07:19.107Z,-1.22
2022-12-20T02:09:46.756Z,-1.19
2022-12-20T02:12:18.554Z,-1.33
2022-12-20T02:15:00.110Z,-1.22
2022-12-20T02:17:54.109Z,-1.20
2022-12-20T02:20:48.500Z,-1.20
2022-12-20T02:23:48.814Z,-1.15
2022-12-20T02:26:40.130Z,-1.14
2022-12-20T02:29:26.074Z,-1.12
2022-12-20T02:32:30.988Z,-1.16
2022-12-20T02:34:57.769Z,-1.16
2022-12-20T02:37:24.612Z,-1.22
2022-12-20T02:39:52.648Z,-1.17
2022-12-20T02:42:24.620Z,-1.21
2022-12-20T02:45:17.834Z,-1.22
2022-12-20T02:48:11.577Z,-1.16
2022-12-20T02:50:40.801Z,-1.27
2022-12-20T02:53:08.624Z,-1.26
2022-12-20T02:55:49.292Z,-1.28
2022-12-20T02:58:36.800Z,-1.18
2022-12-20T03:01:14.405Z,-1.20
2022-12-20T03:03:41.427Z,-1.17
2022-12-20T03:06:08.601Z,-1.16
2022-12-20T03:08:35.845Z,-1.18
2022-12-20T03:11:03.840Z,-1.28
2022-12-20T03:13:30.710Z,-1.28
2022-12-20T03:15:57.663Z,-1.25
2022-12-20T03:18:24.405Z,-1.27
2022-12-20T03:20:51.246Z,-1.29
2022-12-20T03:23:17.991Z,-1.18
2022-12-20T03:25:44.806Z,-1.16
2022-12-20T03:28:11.592Z,-1.19
2022-12-20T03:30:38.380Z,-1.10
2022-12-20T03:33:05.169Z,-1.19
2022-12-20T03:35:32.023Z,-1.08
2022-12-20T03:37:58.803Z,-1.04
2022-12-20T03:40:25.573Z,-0.99
2022-12-20T03:42:52.351Z,-1.01
2022-12-20T03:45:19.204Z,-1.03
2022-12-20T03:47:46.047Z,-1.09
2022-12-20T03:50:13.239Z,-0.96
2022-12-20T03:52:40.386Z,-1.00
2022-12-20T03:55:08.236Z,-1.03
2022-12-20T03:57:35.007Z,-1.01
2022-12-20T04:00:02.019Z,-1.06
2022-12-20T04:02:28.914Z,-1.07
2022-12-20T04:04:55.875Z,-1.04
2022-12-20T04:07:22.611Z,-0.99
2022-12-20T04:09:49.370Z,-1.02
2022-12-20T04:12:16.133Z,-0.97
2022-12-20T04:14:42.890Z,-0.91
2022-12-20T04:17:09.686Z,-0.92
2022-12-20T04:19:36.476Z,-0.92
2022-12-20T04:22:06.114Z,-0.90
2022-12-20T04:24:33.079Z,-0.91
2022-12-20T04:26:59.890Z,-0.80
2022-12-20T04:29:26.691Z,-0.90
2022-12-20T04:31:53.558Z,-0.84
2022-12-20T04:34:20.511Z,-0.93
2022-12-20T04:36:47.325Z,-0.93
2022-12-20T04:39:14.224Z,-0.91
2022-12-20T04:41:40.996Z,-0.88
2022-12-20T04:44:07.819Z,-0.86
2022-12-20T04:46:34.673Z,-0.91
2022-12-20T04:49:01.758Z,-0.91
2022-12-20T04:51:28.967Z,-0.87
2022-12-20T04:53:56.427Z,-0.83
2022-12-20T04:56:27.840Z,-0.74
2022-12-20T04:58:57.891Z,-0.74
2022-12-20T05:01:25.288Z,-0.85
2022-12-20T05:03:52.941Z,-0.74
2022-12-20T05:06:19.969Z,-0.80
2022-12-20T05:08:47.190Z,-0.72
2022-12-20T05:11:14.095Z,-0.74
2022-12-20T05:13:41.347Z,-0.75
2022-12-20T05:16:08.533Z,-0.77
2022-12-20T05:18:35.860Z,-0.73
2022-12-20T05:21:22.762Z,-0.79
2022-12-20T05:24:08.390Z,-0.74
2022-12-20T05:26:37.931Z,-0.79
2022-12-20T05:29:05.863Z,-0.74
2022-12-20T05:31:32.833Z,-0.98
2022-12-20T05:33:59.731Z,-0.75
2022-12-20T05:36:26.630Z,-0.82
2022-12-20T05:38:56.708Z,-0.84
2022-12-20T05:41:28.664Z,-0.94
2022-12-20T05:43:55.668Z,-0.74
2022-12-20T05:46:22.419Z,-0.84
2022-12-20T05:48:49.246Z,-0.89
2022-12-20T05:51:16.120Z,-0.83
2022-12-20T05:53:42.884Z,-0.93
2022-12-20T05:56:09.623Z,-0.84
2022-12-20T05:58:36.634Z,-0.90
2022-12-20T06:01:06.004Z,-0.93
2022-12-20T06:03:33.015Z,-0.88
2022-12-20T06:05:59.893Z,-0.94
2022-12-20T06:08:27.372Z,-0.92
2022-12-20T06:10:54.265Z,-1.00
2022-12-20T06:13:21.198Z,-0.98
2022-12-20T06:15:47.961Z,-0.96
2022-12-20T06:18:14.815Z,-1.00
2022-12-20T06:20:41.552Z,-1.05
2022-12-20T06:23:10.103Z,-1.02
2022-12-20T06:25:38.251Z,-1.10
2022-12-20T06:28:05.887Z,-1.06
2022-12-20T06:30:34.174Z,-1.12
2022-12-20T06:33:02.407Z,-1.06
2022-12-20T06:35:30.244Z,-0.98
2022-12-20T06:37:57.244Z,-1.05
2022-12-20T06:40:26.853Z,-1.09
2022-12-20T06:42:53.693Z,-1.18
2022-12-20T06:45:20.465Z,-1.10
2022-12-20T06:47:47.263Z,-1.11
2022-12-20T06:50:14.139Z,-1.07
2022-12-20T06:52:40.928Z,-1.21
2022-12-20T06:55:08.268Z,-1.14
2022-12-20T06:57:35.057Z,-1.17
2022-12-20T07:00:02.157Z,-1.10
2022-12-20T07:02:29.193Z,-1.16
2022-12-20T07:04:56.020Z,-1.07
2022-12-20T07:07:23.452Z,-1.16
2022-12-20T07:09:50.181Z,-1.16
2022-12-20T07:12:17.103Z,-1.14
2022-12-20T07:14:44.062Z,-1.06
2022-12-20T07:17:14.343Z,-1.10
2022-12-20T07:19:45.702Z,-1.10
2022-12-20T07:22:17.247Z,-1.08
2022-12-20T07:24:44.170Z,-1.05
2022-12-20T07:27:11.739Z,-1.11
2022-12-20T07:29:42.090Z,-1.10
2022-12-20T07:32:09.673Z,-0.96
2022-12-20T07:34:39.402Z,-0.98
2022-12-20T07:37:06.634Z,-1.06
2022-12-20T07:39:33.400Z,-0.99
2022-12-20T07:42:00.324Z,-0.98
2022-12-20T07:44:27.956Z,-0.98
2022-12-20T07:46:55.104Z,-0.97
2022-12-20T07:49:22.318Z,-0.99
2022-12-20T07:51:54.421Z,-0.93
2022-12-20T07:54:31.679Z,-0.87
2022-12-20T07:57:04.411Z,-0.90
2022-12-20T07:59:42.638Z,-0.82
2022-12-20T08:02:15.809Z,-0.73
2022-12-20T08:04:43.396Z,-0.79
2022-12-20T08:07:10.646Z,-0.85
2022-12-20T08:09:42.317Z,-0.75
2022-12-20T08:12:11.121Z,-0.80
2022-12-20T08:14:38.281Z,-0.66
2022-12-20T08:17:05.157Z,-0.61
2022-12-20T08:19:32.723Z,-0.65
2022-12-20T08:21:59.939Z,-0.59
2022-12-20T08:24:26.876Z,-0.54
2022-12-20T08:26:53.707Z,-0.77
2022-12-20T08:29:21.267Z,-0.50
2022-12-20T08:31:50.627Z,-0.53
2022-12-20T08:34:17.895Z,-0.48
2022-12-20T08:36:44.693Z,-0.47
2022-12-20T08:39:11.696Z,-0.56
2022-12-20T08:41:38.637Z,-0.41
2022-12-20T08:44:06.499Z,-0.36
2022-12-20T08:46:33.396Z,-0.45
2022-12-20T08:49:00.207Z,-0.29
2022-12-20T08:51:27.132Z,-0.32
2022-12-20T08:53:54.076Z,-0.32
2022-12-20T08:56:21.533Z,-0.21
2022-12-20T08:58:48.876Z,-0.30
2022-12-20T09:01:19.241Z,-0.13
2022-12-20T09:03:46.770Z,-0.03
2022-12-20T09:06:20.534Z,0.03
2022-12-20T09:08:48.523Z,0.02
2022-12-20T09:11:24.965Z,0.15
2022-12-20T09:13:54.726Z,0.24
2022-12-20T09:16:27.181Z,0.21
2022-12-20T09:19:04.279Z,0.33
2022-12-20T09:21:32.053Z,0.20
2022-12-20T09:23:58.854Z,0.43
2022-12-20T09:26:26.346Z,0.51
2022-12-20T09:28:54.022Z,0.53
2022-12-20T09:31:25.012Z,0.64
2022-12-20T09:33:59.984Z,0.66
2022-12-20T09:36:29.209Z,0.78
2022-12-20T09:38:57.152Z,0.81
2022-12-20T09:41:33.759Z,0.81
2022-12-20T09:44:14.539Z,0.89
2022-12-20T09:46:43.071Z,0.93
2022-12-20T09:49:17.886Z,1.03
2022-12-20T09:52:13.126Z,1.12
2022-12-20T09:55:15.100Z,1.14
2022-12-20T09:58:17.389Z,1.20
2022-12-20T10:00:53.518Z,1.24
2022-12-20T10:03:30.600Z,1.28
2022-12-20T10:06:07.628Z,1.39
2022-12-20T10:08:46.626Z,1.46
2022-12-20T10:11:42.057Z,1.49
2022-12-20T10:14:54.669Z,1.57
2022-12-20T10:17:34.662Z,1.54
2022-12-20T10:20:31.252Z,1.67
2022-12-20T10:23:08.516Z,1.73
2022-12-20T10:25:36.057Z,1.74
2022-12-20T10:28:11.678Z,1.81
2022-12-20T10:30:38.519Z,1.88
2022-12-20T10:33:05.403Z,1.92
2022-12-20T10:35:41.061Z,2.00
2022-12-20T10:38:14.108Z,2.05
2022-12-20T10:41:20.753Z,2.07
2022-12-20T10:44:29.910Z,2.07
2022-12-20T10:47:02.159Z,2.05
2022-12-20T10:49:34.155Z,2.06
2022-12-20T10:52:14.258Z,2.08
2022-12-20T10:54:46.922Z,2.15
2022-12-20T10:57:24.628Z,2.14
2022-12-20T10:59:54.888Z,2.13
2022-12-20T11:02:40.015Z,2.22
2022-12-20T11:05:11.513Z,2.29
2022-12-20T11:10:48.067Z,2.28
2022-12-20T11:13:29.511Z,2.34
2022-12-20T11:16:01.585Z,2.25
2022-12-20T11:19:17.461Z,2.39
2022-12-20T11:22:02.696Z,2.46
2022-12-20T11:25:20.946Z,2.52
2022-12-20T11:28:25.466Z,2.54
2022-12-20T11:31:43.673Z,2.54
2022-12-20T11:34:35.005Z,2.55
2022-12-20T11:37:52.211Z,2.54
2022-12-20T11:40:31.423Z,2.58
2022-12-20T11:43:04.017Z,2.67
2022-12-20T11:45:35.527Z,2.67
2022-12-20T11:48:42.089Z,2.77
2022-12-20T11:51:26.972Z,2.83
2022-12-20T11:54:01.689Z,2.83
2022-12-20T11:56:43.943Z,2.89
2022-12-20T11:59:24.421Z,2.97
2022-12-20T12:02:01.687Z,3.07
2022-12-20T12:04:34.715Z,3.12
2022-12-20T12:07:13.829Z,3.18
2022-12-20T12:09:49.979Z,3.27
2022-12-20T12:12:27.590Z,3.28
2022-12-20T12:15:17.437Z,3.25
2022-12-20T12:18:03.798Z,3.35
2022-12-20T12:20:51.081Z,3.41
2022-12-20T12:23:28.399Z,3.44
2022-12-20T12:25:55.194Z,3.44
2022-12-20T12:28:23.790Z,3.46
2022-12-20T12:31:19.379Z,3.48
2022-12-20T12:34:08.928Z,3.47
2022-12-20T12:36:56.403Z,3.32
2022-12-20T12:40:02.770Z,3.50
2022-12-20T12:43:09.717Z,3.53
2022-12-20T12:45:52.864Z,3.48
2022-12-20T12:48:22.791Z,3.51
2022-12-20T12:50:54.325Z,3.61
2022-12-20T12:53:30.987Z,3.64
2022-12-20T12:56:12.950Z,3.65
2022-12-20T12:58:49.045Z,3.69
2022-12-20T13:01:56.175Z,3.78
2022-12-20T13:04:30.134Z,3.83
2022-12-20T13:07:03.901Z,3.87
2022-12-20T13:09:30.601Z,3.88
2022-12-20T13:12:02.435Z,3.89
2022-12-20T13:14:32.293Z,3.96
2022-12-20T13:17:13.758Z,3.98
2022-12-20T13:19:52.626Z,3.90
2022-12-20T13:22:27.023Z,3.96
2022-12-20T13:25:03.080Z,3.86
2022-12-20T13:27:29.829Z,3.95
2022-12-20T13:30:17.436Z,3.93
2022-12-20T13:32:46.890Z,3.93
2022-12-20T13:35:26.184Z,3.85
2022-12-20T13:38:06.202Z,3.82
2022-12-20T13:40:52.875Z,3.81
2022-12-20T13:43:19.520Z,3.83
2022-12-20T13:45:49.664Z,3.76
2022-12-20T13:48:23.287Z,4.04
2022-12-20T13:50:53.071Z,4.22
2022-12-20T13:53:27.297Z,4.49
2022-12-20T13:55:55.180Z,4.65
2022-12-20T13:58:25.763Z,4.86
2022-12-20T14:00:53.991Z,5.00
2022-12-20T14:03:28.429Z,5.17
2022-12-20T14:06:19.190Z,5.44
2022-12-20T14:08:52.192Z,5.48
2022-12-20T14:11:22.873Z,5.60
2022-12-20T14:14:04.730Z,5.53
2022-12-20T14:16:33.721Z,5.59
2022-12-20T14:19:06.735Z,5.50
2022-12-20T14:21:37.887Z,5.39
2022-12-20T14:24:05.129Z,5.20
2022-12-20T14:26:48.165Z,5.08
2022-12-20T14:29:24.444Z,4.91
2022-12-20T14:31:51.266Z,4.79
2022-12-20T14:34:29.554Z,4.70
2022-12-20T14:37:32.378Z,4.61
2022-12-20T14:40:10.935Z,4.51
2022-12-20T14:42:40.338Z,4.43
2022-12-20T14:45:21.855Z,4.31
2022-12-20T14:48:01.982Z,4.19
2022-12-20T14:50:36.372Z,4.17
2022-12-20T14:53:03.695Z,4.08
2022-12-20T14:55:45.456Z,4.03
2022-12-20T14:58:31.821Z,4.01
2022-12-20T15:01:16.546Z,4.03
2022-12-20T15:04:00.403Z,3.89
2022-12-20T15:06:40.206Z,3.83
2022-12-20T15:09:07.063Z,3.83
2022-12-20T15:11:35.983Z,3.67
2022-12-20T15:14:04.452Z,3.66
2022-12-20T15:16:31.383Z,3.64
2022-12-20T15:19:03.207Z,3.57
2022-12-20T15:21:34.159Z,3.54
2022-12-20T15:24:07.875Z,3.53
2022-12-20T15:26:35.635Z,3.45
2022-12-20T15:29:02.346Z,3.32
2022-12-20T15:31:33.672Z,3.37
2022-12-20T15:34:04.936Z,3.22
2022-12-20T15:36:33.653Z,3.22
2022-12-20T15:39:12.677Z,3.20
2022-12-20T15:41:44.077Z,3.15
2022-12-20T15:44:18.059Z,3.11
2022-12-20T15:46:44.990Z,3.07
2022-12-20T15:49:19.411Z,3.03
2022-12-20T15:51:49.607Z,2.93
2022-12-20T15:54:37.284Z,2.93
2022-12-20T15:57:07.767Z,2.93
2022-12-20T16:02:28.024Z,2.80
2022-12-20T16:04:55.562Z,2.77
2022-12-20T16:07:22.853Z,2.77
2022-12-20T16:09:49.727Z,2.72
2022-12-20T16:12:21.761Z,2.72
2022-12-20T16:14:48.579Z,2.68
2022-12-20T16:17:15.978Z,2.70
2022-12-20T16:19:44.075Z,2.64
2022-12-20T16:22:22.860Z,2.62
2022-12-20T16:24:50.148Z,2.64
2022-12-20T16:27:16.923Z,2.58
2022-12-20T16:29:43.753Z,2.57
2022-12-20T16:32:19.764Z,2.60
2022-12-20T16:34:47.509Z,2.54
2022-12-20T16:37:14.359Z,2.52
2022-12-20T16:39:42.077Z,2.55
2022-12-20T16:42:17.730Z,2.47
2022-12-20T16:44:45.686Z,2.48
2022-12-20T16:47:13.777Z,2.50
2022-12-20T16:49:47.174Z,2.48
2022-12-20T16:52:18.872Z,2.47
2022-12-20T16:54:45.675Z,2.46
2022-12-20T16:57:12.453Z,2.49
2022-12-20T16:59:39.265Z,2.46
2022-12-20T17:02:23.965Z,2.44
2022-12-20T17:04:51.093Z,2.41
2022-12-20T17:07:17.953Z,2.43
2022-12-20T17:09:56.604Z,2.35
2022-12-20T17:12:23.497Z,2.37
2022-12-20T17:14:50.286Z,2.39
2022-12-20T17:17:17.685Z,2.34
2022-12-20T17:19:44.941Z,2.33
2022-12-20T17:22:25.253Z,2.37
2022-12-20T17:24:52.098Z,2.40
2022-12-20T17:27:19.132Z,2.36
2022-12-20T17:29:46.012Z,2.42
2022-12-20T17:32:25.916Z,2.38
2022-12-20T17:34:53.104Z,2.25
2022-12-20T17:37:21.085Z,2.33
2022-12-20T17:39:48.163Z,2.29
2022-12-20T17:42:15.464Z,2.30
2022-12-20T17:44:42.598Z,2.34
2022-12-20T17:47:09.725Z,2.30
2022-12-20T17:49:36.508Z,2.24
2022-12-20T17:52:03.845Z,2.33
2022-12-20T17:54:36.831Z,2.33
2022-12-20T17:57:12.000Z,2.31
2022-12-20T17:59:38.737Z,2.25
2022-12-20T18:02:21.354Z,2.25
2022-12-20T18:04:48.565Z,2.24
2022-12-20T18:07:15.378Z,2.24
2022-12-20T18:09:42.109Z,2.28
2022-12-20T18:12:11.012Z,2.32
2022-12-20T18:14:37.776Z,2.19
2022-12-20T18:17:04.617Z,2.24
2022-12-20T18:19:31.966Z,2.31
2022-12-20T18:22:00.089Z,2.26
2022-12-20T18:24:27.619Z,2.24
2022-12-20T18:26:54.355Z,2.22
2022-12-20T18:29:21.621Z,2.25
2022-12-20T18:31:48.474Z,2.23
2022-12-20T18:34:15.246Z,2.25
2022-12-20T18:36:42.293Z,2.24
2022-12-20T18:39:13.267Z,2.25
2022-12-20T18:41:43.012Z,2.19
2022-12-20T18:44:11.431Z,2.27
2022-12-20T18:46:38.575Z,2.19
2022-12-20T18:49:05.475Z,2.09
2022-12-20T18:51:38.398Z,2.21
2022-12-20T18:54:08.080Z,2.22
2022-12-20T18:56:38.141Z,2.22
2022-12-20T18:59:11.378Z,2.18
2022-12-20T19:01:40.202Z,2.22
2022-12-20T19:04:08.185Z,2.22
2022-12-20T19:06:36.994Z,2.22
2022-12-20T19:09:11.549Z,2.16
2022-12-20T19:11:38.400Z,2.16
2022-12-20T19:14:05.665Z,2.20
2022-12-20T19:16:33.333Z,2.11
2022-12-20T19:19:04.294Z,2.17
2022-12-20T19:21:33.925Z,2.19
2022-12-20T19:24:05.695Z,2.18
2022-12-20T19:26:34.240Z,2.18
2022-12-20T19:29:01.054Z,2.17
2022-12-20T19:31:31.646Z,2.19
2022-12-20T19:34:02.010Z,2.12
2022-12-20T19:36:39.722Z,2.14
2022-12-20T19:39:13.814Z,2.11
2022-12-20T19:41:40.930Z,2.14
2022-12-20T19:44:08.947Z,2.04
2022-12-20T19:46:35.805Z,2.10
2022-12-20T19:49:02.617Z,1.92
2022-12-20T19:51:29.466Z,2.14
2022-12-20T19:53:58.240Z,2.13
2022-12-20T19:56:28.797Z,2.13
2022-12-20T19:58:56.510Z,2.06
2022-12-20T20:01:27.017Z,2.09
2022-12-20T20:03:56.891Z,2.14
2022-12-20T20:06:24.432Z,2.05
2022-12-20T20:08:51.649Z,2.08
2022-12-20T20:11:21.158Z,2.13
2022-12-20T20:13:48.360Z,2.01
2022-12-20T20:16:21.581Z,2.06
2022-12-20T20:18:49.343Z,2.11
2022-12-20T20:21:21.436Z,2.15
2022-12-20T20:23:52.784Z,2.02
2022-12-20T20:26:24.067Z,2.08
2022-12-20T20:28:51.895Z,2.09
2022-12-20T20:31:20.735Z,2.05
2022-12-20T20:33:47.978Z,1.95
2022-12-20T20:36:19.485Z,2.09
2022-12-20T20:38:46.933Z,2.08
2022-12-20T20:41:14.414Z,2.11
2022-12-20T20:43:42.267Z,2.01
2022-12-20T20:46:12.674Z,2.05
2022-12-20T20:48:40.745Z,2.04
2022-12-20T20:51:07.597Z,2.00
2022-12-20T20:53:35.107Z,2.06
2022-12-20T20:56:03.565Z,2.04
2022-12-20T20:58:31.088Z,1.87
2022-12-20T21:01:03.367Z,2.02
2022-12-20T21:03:31.357Z,2.04
2022-12-20T21:08:45.437Z,2.01
2022-12-20T21:11:13.628Z,1.93
2022-12-20T21:13:40.649Z,1.97
2022-12-20T21:16:20.638Z,2.03
2022-12-20T21:18:58.694Z,2.02
2022-12-20T21:21:26.990Z,2.04
2022-12-20T21:23:54.899Z,1.95
2022-12-20T21:26:23.729Z,2.03
2022-12-20T21:28:50.474Z,2.02
2022-12-20T21:31:19.876Z,2.03
2022-12-20T21:33:46.962Z,2.04
2022-12-20T21:36:17.421Z,2.04
2022-12-20T21:38:52.661Z,1.90
2022-12-20T21:41:23.376Z,2.02
2022-12-20T21:43:51.479Z,1.94
2022-12-20T21:46:18.356Z,1.96
2022-12-20T21:48:45.395Z,1.99
2022-12-20T21:51:15.824Z,2.01
2022-12-20T21:53:46.293Z,1.93
2022-12-20T21:56:13.654Z,1.98
2022-12-20T21:58:40.404Z,2.02
2022-12-20T22:01:08.494Z,2.01
2022-12-20T22:03:36.851Z,2.02
2022-12-20T22:06:04.490Z,2.06
2022-12-20T22:08:33.082Z,1.87
2022-12-20T22:11:15.837Z,2.04
2022-12-20T22:13:43.022Z,2.04
2022-12-20T22:16:16.579Z,2.05
2022-12-20T22:18:45.013Z,2.06
2022-12-20T22:21:14.637Z,2.00
2022-12-20T22:23:42.384Z,2.03
2022-12-20T22:26:13.509Z,2.01
2022-12-20T22:28:49.246Z,2.03
2022-12-20T22:31:16.998Z,2.03
2022-12-20T22:33:44.781Z,2.04
2022-12-20T22:36:15.388Z,2.03
2022-12-20T22:38:46.124Z,2.05
2022-12-20T22:41:22.548Z,1.95
2022-12-20T22:43:50.357Z,2.05
2022-12-20T22:46:19.017Z,2.11
2022-12-20T22:48:46.682Z,2.14
2022-12-20T22:51:24.886Z,1.98
2022-12-20T22:53:52.230Z,2.04
2022-12-20T22:56:21.756Z,2.11
2022-12-20T22:58:49.730Z,2.07
2022-12-20T23:01:19.498Z,2.03
2022-12-20T23:03:46.716Z,2.07
2022-12-20T23:06:17.555Z,2.04
2022-12-20T23:08:44.782Z,2.01
2022-12-20T23:11:47.529Z,2.03
2022-12-20T23:14:37.106Z,2.07
2022-12-20T23:17:05.411Z,2.06
2022-12-20T23:19:52.459Z,2.06
2022-12-20T23:22:39.457Z,2.04
2022-12-20T23:25:14.579Z,2.06
2022-12-20T23:27:43.508Z,2.06
2022-12-20T23:30:15.035Z,2.07
2022-12-20T23:32:45.312Z,1.98
2022-12-20T23:35:15.258Z,2.03
2022-12-20T23:37:42.411Z,2.05
2022-12-20T23:40:10.911Z,2.08
2022-12-20T23:42:38.284Z,2.05
2022-12-20T23:45:05.391Z,2.00
2022-12-20T23:47:32.680Z,2.04
2022-12-20T23:49:59.405Z,2.08
2022-12-20T23:52:26.496Z,2.07
2022-12-20T23:54:53.284Z,2.03
2022-12-20T23:57:20.048Z,2.06
2022-12-20T23:59:46.756Z,1.96
